Time;durP1;ratioP1;P1;durP2;ratioP2;P2;SDS_P1;SDS_P2;PMS_P1;PMS_P2;Temp;Humidity;BMP_temperature;BMP_pressure;BME280_temperature;BME280_humidity;BME280_pressure;Samples;Min_cycle;Max_cycle;Signal;HPM_P1;HPM_P2
2021/01/09 00:00:38;;;;;;;35.10;16.38;;;1.70;86.30;;;;;;5049162;28;20059;-65
2021/01/09 00:03:03;;;;;;;32.40;17.00;;;1.70;86.40;;;;;;5048939;28;20714;-64
2021/01/09 00:05:29;;;;;;;34.40;17.02;;;1.70;86.50;;;;;;5049587;28;20029;-66
2021/01/09 00:07:54;;;;;;;33.22;15.70;;;1.70;86.50;;;;;;5050341;28;20029;-65
2021/01/09 00:10:20;;;;;;;32.00;15.30;;;1.80;86.40;;;;;;5050709;28;20032;-66
2021/01/09 00:12:46;;;;;;;28.15;15.55;;;1.80;86.30;;;;;;5049860;28;20114;-66
2021/01/09 00:15:12;;;;;;;31.38;15.68;;;1.70;86.10;;;;;;5049051;28;20035;-66
2021/01/09 00:17:37;;;;;;;32.45;15.25;;;1.70;86.20;;;;;;5049328;28;20032;-66
2021/01/09 00:20:14;;;;;;;35.15;17.33;;;1.70;86.30;;;;;;5048461;28;20453;-63
2021/01/09 00:22:40;;;;;;;29.33;15.52;;;1.70;86.50;;;;;;5049106;28;20021;-67
2021/01/09 00:25:07;;;;;;;33.65;16.23;;;1.70;86.40;;;;;;5042876;28;20048;-66
2021/01/09 00:27:33;;;;;;;31.70;16.10;;;1.70;86.40;;;;;;5049191;28;20031;-65
2021/01/09 00:29:59;;;;;;;29.70;16.27;;;1.70;86.50;;;;;;5050119;28;20029;-63
2021/01/09 00:32:24;;;;;;;28.40;15.95;;;1.70;86.50;;;;;;5049063;28;20086;-67
2021/01/09 00:34:50;;;;;;;32.67;16.98;;;1.70;86.50;;;;;;5047241;28;20496;-66
2021/01/09 00:37:16;;;;;;;25.50;13.95;;;1.70;86.30;;;;;;5050700;28;20056;-66
2021/01/09 00:39:46;;;;;;;30.60;15.70;;;1.70;86.20;;;;;;5050126;28;20090;-66
2021/01/09 00:42:11;;;;;;;27.60;14.65;;;1.70;86.20;;;;;;5048506;28;20028;-66
2021/01/09 00:44:37;;;;;;;27.58;15.02;;;1.70;85.90;;;;;;5049090;28;20032;-66
2021/01/09 00:47:02;;;;;;;31.58;15.48;;;1.70;86.00;;;;;;5050315;28;20046;-67
2021/01/09 00:49:28;;;;;;;25.77;14.52;;;1.70;86.20;;;;;;5050066;28;20056;-66
2021/01/09 00:51:54;;;;;;;26.80;15.23;;;1.70;86.30;;;;;;5049695;28;20127;-66
2021/01/09 00:54:20;;;;;;;28.60;15.07;;;1.60;86.30;;;;;;5041258;28;20486;-67
2021/01/09 00:56:46;;;;;;;33.80;16.25;;;1.70;86.40;;;;;;5049449;28;20043;-66
2021/01/09 00:59:11;;;;;;;25.05;15.18;;;1.70;86.40;;;;;;5050077;28;20056;-64
2021/01/09 01:01:37;;;;;;;28.95;15.38;;;1.80;86.30;;;;;;5046672;28;20036;-66
2021/01/09 01:04:02;;;;;;;30.73;16.35;;;1.80;86.20;;;;;;5047017;28;20050;-66
2021/01/09 01:06:28;;;;;;;29.00;15.65;;;1.80;86.30;;;;;;5048618;28;20021;-66
2021/01/09 01:08:54;;;;;;;26.88;15.10;;;1.70;85.70;;;;;;5049657;28;20572;-66
2021/01/09 01:11:28;;;;;;;29.00;14.77;;;1.70;85.90;;;;;;5050027;28;20654;-66
2021/01/09 01:13:54;;;;;;;28.42;15.55;;;1.70;86.20;;;;;;5048927;28;20025;-65
2021/01/09 01:16:24;;;;;;;27.17;14.45;;;1.70;86.20;;;;;;5049873;28;20160;-64
2021/01/09 01:18:49;;;;;;;26.65;14.15;;;1.70;86.20;;;;;;5049908;28;20082;-66
2021/01/09 01:21:15;;;;;;;24.02;13.48;;;1.70;86.30;;;;;;5048015;28;20024;-66
2021/01/09 01:23:41;;;;;;;22.45;13.07;;;1.80;86.20;;;;;;5047994;28;20064;-66
2021/01/09 01:26:10;;;;;;;24.88;14.52;;;1.80;86.30;;;;;;5037301;28;20481;-64
2021/01/09 01:28:37;;;;;;;25.60;13.73;;;1.90;86.30;;;;;;5064423;28;20060;-66
2021/01/09 01:31:03;;;;;;;25.35;13.32;;;1.80;86.00;;;;;;5050163;28;20021;-65
2021/01/09 01:33:28;;;;;;;24.73;13.48;;;1.90;86.00;;;;;;5049738;28;20083;-64
2021/01/09 01:35:55;;;;;;;23.45;12.63;;;1.90;86.00;;;;;;5049019;28;20071;-66
2021/01/09 01:38:20;;;;;;;23.17;12.68;;;1.90;85.90;;;;;;5049768;28;20048;-66
2021/01/09 01:40:46;;;;;;;24.65;13.48;;;1.90;85.80;;;;;;5048435;28;20025;-64
2021/01/09 01:43:12;;;;;;;24.38;13.55;;;1.90;85.90;;;;;;5048136;28;20033;-65
2021/01/09 01:45:38;;;;;;;21.83;13.43;;;1.80;85.80;;;;;;5049243;28;20096;-66
2021/01/09 01:48:06;;;;;;;23.15;13.93;;;1.90;85.80;;;;;;5049899;28;20426;-65
2021/01/09 01:50:33;;;;;;;22.60;12.50;;;1.80;85.80;;;;;;5049951;28;20017;-66
2021/01/09 01:52:59;;;;;;;21.80;12.65;;;1.80;86.00;;;;;;5044738;28;20018;-66
2021/01/09 01:55:24;;;;;;;23.27;13.00;;;1.80;86.00;;;;;;5034121;28;20083;-66
2021/01/09 01:57:50;;;;;;;25.38;13.50;;;1.80;85.90;;;;;;5047304;28;20120;-66
2021/01/09 02:00:16;;;;;;;23.65;12.48;;;1.80;85.80;;;;;;5049345;28;20088;-66
2021/01/09 02:02:42;;;;;;;22.13;12.85;;;1.80;85.80;;;;;;5049652;28;20021;-66
2021/01/09 02:05:09;;;;;;;26.02;13.38;;;1.80;85.80;;;;;;5052709;28;20025;-64
2021/01/09 02:07:39;;;;;;;24.98;12.98;;;1.80;85.90;;;;;;5051749;28;20489;-67
2021/01/09 02:10:06;;;;;;;25.77;13.40;;;1.80;85.80;;;;;;5053627;28;20033;-67
2021/01/09 02:12:48;;;;;;;22.95;12.85;;;1.90;86.00;;;;;;5051713;28;20021;-64
2021/01/09 02:15:16;;;;;;;25.35;14.05;;;1.80;85.90;;;;;;5051019;28;20527;-67
2021/01/09 02:17:44;;;;;;;25.20;13.63;;;1.90;85.80;;;;;;5052961;28;20130;-67
2021/01/09 02:20:10;;;;;;;27.30;14.00;;;1.80;85.70;;;;;;5053364;28;20409;-66
2021/01/09 02:22:45;;;;;;;25.08;13.85;;;1.90;85.70;;;;;;5052323;28;20025;-66
2021/01/09 02:25:13;;;;;;;23.65;13.55;;;1.90;85.70;;;;;;5047797;28;20048;-66
2021/01/09 02:27:39;;;;;;;26.15;14.07;;;1.80;85.60;;;;;;5052700;28;20021;-66
2021/01/09 02:30:06;;;;;;;26.95;14.32;;;1.80;85.70;;;;;;5053216;28;20108;-66
2021/01/09 02:32:56;;;;;;;23.95;13.70;;;1.80;85.80;;;;;;5052496;28;20029;-66
2021/01/09 02:35:25;;;;;;;25.83;14.10;;;1.80;85.90;;;;;;5041960;28;20036;-66
2021/01/09 02:37:50;;;;;;;28.23;14.57;;;1.80;85.70;;;;;;5052429;28;20024;-66
2021/01/09 02:40:18;;;;;;;25.90;14.43;;;1.80;85.70;;;;;;5053270;28;20017;-66
2021/01/09 02:42:44;;;;;;;27.33;15.02;;;1.80;85.90;;;;;;5051161;28;20041;-67
2021/01/09 02:45:10;;;;;;;29.50;15.30;;;1.80;86.00;;;;;;5050946;28;20079;-66
2021/01/09 02:47:36;;;;;;;24.35;14.00;;;1.80;85.90;;;;;;5053372;28;20025;-66
2021/01/09 02:50:05;;;;;;;26.90;14.43;;;1.90;85.90;;;;;;5051252;28;20469;-66
2021/01/09 02:52:31;;;;;;;31.20;15.65;;;1.90;86.00;;;;;;5052005;28;20100;-67
2021/01/09 02:54:56;;;;;;;30.35;16.20;;;1.90;86.00;;;;;;5033545;28;20217;-66
2021/01/09 02:57:22;;;;;;;32.55;17.27;;;1.90;85.90;;;;;;5037671;28;20061;-66
2021/01/09 02:59:47;;;;;;;28.70;15.50;;;2.00;85.70;;;;;;5052236;28;20032;-65
2021/01/09 03:02:13;;;;;;;32.15;17.27;;;2.00;86.10;;;;;;5051854;28;20029;-67
2021/01/09 03:04:38;;;;;;;32.13;16.92;;;2.00;85.80;;;;;;5043868;28;20029;-66
2021/01/09 03:07:04;;;;;;;32.10;16.45;;;2.00;85.70;;;;;;5052018;28;20025;-66
2021/01/09 03:09:29;;;;;;;32.00;16.35;;;2.00;85.60;;;;;;5052236;28;20018;-65
2021/01/09 03:11:55;;;;;;;30.48;16.60;;;2.00;85.50;;;;;;5050520;28;20082;-66
2021/01/09 03:14:21;;;;;;;32.03;16.65;;;2.00;85.50;;;;;;5051244;28;20078;-66
2021/01/09 03:16:46;;;;;;;32.45;16.27;;;2.00;85.50;;;;;;5051913;28;20032;-66
2021/01/09 03:19:12;;;;;;;29.85;16.00;;;1.90;85.50;;;;;;5051446;28;20299;-66
2021/01/09 03:21:37;;;;;;;28.83;15.80;;;1.90;85.70;;;;;;5050160;28;20122;-68
2021/01/09 03:24:03;;;;;;;31.98;16.58;;;2.00;85.80;;;;;;5050367;28;20036;-66
2021/01/09 03:26:30;;;;;;;35.55;17.30;;;2.00;85.80;;;;;;5050325;28;20024;-66
2021/01/09 03:28:56;;;;;;;32.28;15.60;;;2.00;85.60;;;;;;5051745;28;20096;-66
2021/01/09 03:31:21;;;;;;;28.33;15.88;;;2.00;85.50;;;;;;5049950;28;20810;-66
2021/01/09 03:33:47;;;;;;;26.83;14.82;;;2.00;85.40;;;;;;5051173;28;20035;-65
2021/01/09 03:36:13;;;;;;;28.83;15.27;;;2.00;85.60;;;;;;5050017;28;20057;-66
2021/01/09 03:38:38;;;;;;;30.42;16.05;;;2.00;85.70;;;;;;5050191;28;20021;-63
2021/01/09 03:41:04;;;;;;;29.52;15.63;;;2.00;85.60;;;;;;5051191;28;20025;-66
2021/01/09 03:43:29;;;;;;;28.85;15.13;;;2.00;85.60;;;;;;5050736;28;20063;-65
2021/01/09 03:45:55;;;;;;;31.38;16.83;;;2.00;85.50;;;;;;5050831;28;20028;-68
2021/01/09 03:48:20;;;;;;;30.23;15.00;;;2.00;85.40;;;;;;5049101;28;20035;-63
2021/01/09 03:50:46;;;;;;;31.40;15.85;;;2.00;85.30;;;;;;5050783;28;20104;-66
2021/01/09 03:53:12;;;;;;;33.83;17.13;;;1.90;85.70;;;;;;5045113;28;20022;-65
2021/01/09 03:55:37;;;;;;;29.17;16.80;;;1.90;85.40;;;;;;5035953;28;20090;-65
2021/01/09 03:58:03;;;;;;;28.08;14.65;;;2.00;85.60;;;;;;5049845;28;20044;-64
2021/01/09 04:00:29;;;;;;;29.73;15.10;;;2.00;85.60;;;;;;5050985;28;20087;-65
2021/01/09 04:02:54;;;;;;;29.40;15.50;;;2.00;85.70;;;;;;5050412;28;20017;-66
2021/01/09 04:05:20;;;;;;;27.50;15.07;;;2.10;85.70;;;;;;5049202;28;20108;-65
2021/01/09 04:07:45;;;;;;;30.80;16.55;;;2.10;85.60;;;;;;5051192;28;20485;-66
2021/01/09 04:10:11;;;;;;;30.67;15.70;;;2.20;85.60;;;;;;5051070;28;20036;-66
2021/01/09 04:12:37;;;;;;;31.38;16.95;;;2.20;85.50;;;;;;5049335;28;20084;-66
2021/01/09 04:15:04;;;;;;;33.42;15.48;;;2.20;85.50;;;;;;5049558;28;20069;-66
2021/01/09 04:17:29;;;;;;;29.35;15.80;;;2.20;85.60;;;;;;5050304;28;20122;-63
2021/01/09 04:19:55;;;;;;;26.17;14.60;;;2.20;85.60;;;;;;5050015;28;20520;-66
2021/01/09 04:22:20;;;;;;;26.30;15.18;;;2.20;85.40;;;;;;5050522;28;20477;-66
2021/01/09 04:24:46;;;;;;;29.15;15.00;;;2.20;85.40;;;;;;5032293;28;20469;-65
2021/01/09 04:27:11;;;;;;;26.58;14.55;;;2.20;85.50;;;;;;5050282;28;20041;-66
2021/01/09 04:29:37;;;;;;;29.75;15.20;;;2.20;85.50;;;;;;5049004;28;20028;-66
2021/01/09 04:32:03;;;;;;;27.60;15.07;;;2.20;85.40;;;;;;5046654;28;20020;-66
2021/01/09 04:34:28;;;;;;;27.55;14.20;;;2.20;85.30;;;;;;5049728;28;20108;-66
2021/01/09 04:36:54;;;;;;;27.77;15.10;;;2.30;85.40;;;;;;5049258;28;20489;-66
2021/01/09 04:39:20;;;;;;;28.92;15.18;;;2.30;85.40;;;;;;5050342;28;20098;-66
2021/01/09 04:41:46;;;;;;;25.77;14.43;;;2.30;85.30;;;;;;5049520;28;20061;-66
2021/01/09 04:44:13;;;;;;;26.23;14.32;;;2.30;85.10;;;;;;5048614;28;20033;-69
2021/01/09 04:46:50;;;;;;;27.45;15.23;;;2.30;84.90;;;;;;5049094;28;20050;-67
2021/01/09 04:49:16;;;;;;;24.45;13.73;;;2.20;85.00;;;;;;5048237;28;20028;-67
2021/01/09 04:51:43;;;;;;;26.15;14.15;;;2.20;85.00;;;;;;5049759;28;20021;-65
2021/01/09 04:54:13;;;;;;;31.08;15.00;;;2.20;85.00;;;;;;5036948;28;20100;-67
2021/01/09 04:56:39;;;;;;;33.38;16.35;;;2.10;85.00;;;;;;5045120;28;20035;-67
2021/01/09 04:59:05;;;;;;;34.33;17.25;;;2.00;85.00;;;;;;5050131;28;20025;-67
2021/01/09 05:01:30;;;;;;;35.05;17.80;;;2.00;85.20;;;;;;5049369;28;20028;-67
2021/01/09 05:03:56;;;;;;;33.67;18.27;;;2.00;85.20;;;;;;5048406;28;20029;-68
2021/01/09 05:06:22;;;;;;;35.38;17.92;;;2.00;85.30;;;;;;5049336;28;20066;-68
2021/01/09 05:08:48;;;;;;;36.65;17.40;;;2.00;85.20;;;;;;5049977;28;20483;-67
2021/01/09 05:11:18;;;;;;;36.65;18.17;;;1.90;85.20;;;;;;5049332;28;20028;-67
2021/01/09 05:13:43;;;;;;;36.40;17.23;;;1.90;85.40;;;;;;5048519;28;20056;-67
2021/01/09 05:16:11;;;;;;;36.67;17.45;;;2.00;85.50;;;;;;5049055;28;20029;-67
2021/01/09 05:18:38;;;;;;;34.70;17.02;;;1.90;85.40;;;;;;5049874;28;20503;-67
2021/01/09 05:21:05;;;;;;;35.83;17.15;;;1.90;85.30;;;;;;5048504;28;20055;-68
2021/01/09 05:23:49;;;;;;;33.50;17.98;;;1.90;85.50;;;;;;5049208;28;20029;-67
2021/01/09 05:26:20;;;;;;;34.33;17.70;;;1.90;85.30;;;;;;5042622;28;20017;-67
2021/01/09 05:28:51;;;;;;;36.58;17.45;;;1.90;85.30;;;;;;5049480;28;20024;-68
2021/01/09 05:31:18;;;;;;;34.38;17.27;;;1.90;85.30;;;;;;5049027;28;20045;-68
2021/01/09 05:33:44;;;;;;;39.20;18.00;;;1.90;85.40;;;;;;5049879;28;20036;-67
2021/01/09 05:36:11;;;;;;;37.63;18.35;;;1.90;85.50;;;;;;5049672;28;20020;-67
2021/01/09 05:38:39;;;;;;;37.40;17.63;;;1.90;85.60;;;;;;5051307;28;20039;-67
2021/01/09 05:41:16;;;;;;;41.45;18.60;;;1.90;85.60;;;;;;5052248;28;20056;-67
2021/01/09 05:43:45;;;;;;;38.67;17.75;;;1.90;85.40;;;;;;5053305;28;20064;-67
2021/01/09 05:46:12;;;;;;;37.35;17.75;;;1.90;85.30;;;;;;5052847;28;20064;-67
2021/01/09 05:48:40;;;;;;;37.35;18.88;;;1.90;85.40;;;;;;5053483;28;20437;-68
2021/01/09 05:51:07;;;;;;;37.67;18.15;;;1.90;85.50;;;;;;5053700;28;20063;-68
2021/01/09 05:53:42;;;;;;;39.28;19.23;;;1.90;85.50;;;;;;5088365;22;20514;-89
2021/01/09 05:56:10;;;;;;;35.35;17.13;;;1.90;85.30;;;;;;5029290;28;20026;-89
2021/01/09 05:58:35;;;;;;;37.90;17.85;;;1.90;85.20;;;;;;5020334;28;20026;-90
2021/01/09 06:01:07;;;;;;;37.70;18.17;;;1.90;85.40;;;;;;5030690;28;20025;-89
2021/01/09 06:03:56;;;;;;;37.90;19.08;;;1.80;85.60;;;;;;5046168;28;20038;-90
2021/01/09 06:06:29;;;;;;;43.45;19.33;;;1.90;85.70;;;;;;5013311;28;20038;-89
2021/01/09 06:08:57;;;;;;;;;;;1.90;85.60;;;;;;5014595;28;20709;-89
2021/01/09 06:11:40;;;;;;;39.42;18.00;;;1.90;85.50;;;;;;5016081;28;20009;-89
2021/01/09 06:14:12;;;;;;;41.83;18.52;;;1.90;85.10;;;;;;5033129;28;20045;-88
2021/01/09 06:16:43;;;;;;;36.90;17.45;;;1.80;85.10;;;;;;5026160;28;20037;-89
2021/01/09 06:19:09;;;;;;;39.60;18.30;;;1.80;85.30;;;;;;5017756;28;20041;-89
2021/01/09 06:21:36;;;;;;;39.17;18.45;;;1.70;85.40;;;;;;5015843;28;20026;-88
2021/01/09 06:24:04;;;;;;;37.75;17.80;;;1.70;85.60;;;;;;5008691;28;20040;-89
2021/01/09 06:26:30;;;;;;;39.10;19.25;;;1.70;85.90;;;;;;5003078;28;20030;-89
2021/01/09 06:29:00;;;;;;;41.97;18.80;;;1.70;85.90;;;;;;5013216;28;20109;-89
2021/01/09 06:31:28;;;;;;;36.65;17.45;;;1.70;85.80;;;;;;5014158;28;20476;-90
2021/01/09 06:33:56;;;;;;;37.90;18.45;;;1.70;85.90;;;;;;5014304;28;20034;-89
2021/01/09 06:36:24;;;;;;;39.70;18.58;;;1.80;85.90;;;;;;5013730;28;20025;-89
2021/01/09 06:38:57;;;;;;;41.45;19.02;;;1.80;85.70;;;;;;5013307;28;20030;-90
2021/01/09 06:41:24;;;;;;;36.70;16.98;;;1.90;85.60;;;;;;5014090;28;20032;-89
2021/01/09 06:43:52;;;;;;;36.38;16.45;;;1.90;85.70;;;;;;5013216;28;20096;-88
2021/01/09 06:46:32;;;;;;;35.10;17.67;;;1.90;85.70;;;;;;5013649;28;20022;-89
2021/01/09 06:48:59;;;;;;;34.15;17.15;;;1.90;85.70;;;;;;5011818;28;20069;-90
2021/01/09 06:51:44;;;;;;;39.78;17.50;;;1.80;85.60;;;;;;5013628;28;20037;-90
2021/01/09 06:54:20;;;;;;;38.80;18.00;;;1.80;85.80;;;;;;5011219;28;20080;-90
2021/01/09 06:56:47;;;;;;;35.63;16.42;;;1.80;85.90;;;;;;5010585;28;20026;-89
2021/01/09 06:59:27;;;;;;;35.75;17.05;;;1.80;86.00;;;;;;5012882;28;20040;-89
2021/01/09 07:02:13;;;;;;;33.33;16.85;;;1.80;85.90;;;;;;5013450;28;20088;-90
2021/01/09 07:04:53;;;;;;;34.97;17.02;;;1.90;85.90;;;;;;5012613;28;20388;-90
2021/01/09 07:07:27;;;;;;;31.17;15.70;;;2.00;85.90;;;;;;5013194;28;20022;-91
2021/01/09 07:10:00;;;;;;;36.20;16.85;;;2.00;85.80;;;;;;5012562;28;20073;-90
2021/01/09 07:12:29;;;;;;;;;;;2.00;85.70;;;;;;5028790;28;20026;-90
2021/01/09 07:15:06;;;;;;;39.28;17.45;;;2.00;85.60;;;;;;5012408;28;20394;-89
2021/01/09 07:17:35;;;;;;;35.97;16.70;;;2.00;85.40;;;;;;5013855;28;20392;-90
2021/01/09 07:20:08;;;;;;;32.13;16.15;;;2.10;85.40;;;;;;5014607;28;20492;-91
2021/01/09 07:22:39;;;;;;;32.65;16.85;;;2.00;85.40;;;;;;5012886;28;20052;-89
2021/01/09 07:25:09;;;;;;;36.60;17.33;;;2.00;85.40;;;;;;5012311;28;20034;-89
2021/01/09 07:27:41;;;;;;;34.17;16.38;;;2.00;85.40;;;;;;5009689;28;20437;-89
2021/01/09 07:30:13;;;;;;;;;;;2.00;85.60;;;;;;5005519;28;20538;-89
2021/01/09 07:32:43;;;;;;;32.50;15.60;;;2.00;85.60;;;;;;5013153;28;20378;-89
2021/01/09 07:35:09;;;;;;;31.05;16.80;;;1.90;85.40;;;;;;5012009;28;20030;-89
2021/01/09 07:37:40;;;;;;;33.83;17.45;;;1.90;85.50;;;;;;5013012;28;20087;-89
2021/01/09 07:40:18;;;;;;;32.50;16.17;;;1.90;85.50;;;;;;5014047;28;20523;-89
2021/01/09 07:42:45;;;;;;;36.65;17.10;;;1.90;85.30;;;;;;5013521;28;20038;-89
2021/01/09 07:45:19;;;;;;;30.20;15.05;;;1.90;85.20;;;;;;5027639;28;20068;-89
2021/01/09 07:47:48;;;;;;;30.85;15.18;;;1.90;85.20;;;;;;5012301;28;20022;-90
2021/01/09 07:50:16;;;;;;;31.00;14.93;;;1.80;85.20;;;;;;5011827;28;20045;-89
2021/01/09 07:52:42;;;;;;;32.20;15.73;;;1.80;85.20;;;;;;5011743;28;20387;-89
2021/01/09 07:55:14;;;;;;;32.75;15.70;;;1.90;85.30;;;;;;5000392;28;20078;-88
2021/01/09 07:57:39;;;;;;;27.83;15.05;;;1.80;85.20;;;;;;5016035;28;20037;-88
2021/01/09 08:00:14;;;;;;;34.00;15.25;;;1.80;85.10;;;;;;5014156;28;20032;-89
2021/01/09 08:02:41;;;;;;;27.63;14.18;;;1.80;85.00;;;;;;5037294;28;20440;-89
2021/01/09 08:05:08;;;;;;;28.70;14.75;;;1.80;85.00;;;;;;5012673;28;20084;-89
2021/01/09 08:07:39;;;;;;;28.90;14.90;;;1.80;84.90;;;;;;5012668;28;20065;-88
2021/01/09 08:10:32;;;;;;;31.30;14.93;;;1.80;84.80;;;;;;5014646;28;20022;-89
2021/01/09 08:13:08;;;;;;;28.65;15.00;;;1.80;84.80;;;;;;5024453;28;20041;-88
2021/01/09 08:15:47;;;;;;;29.02;14.95;;;1.80;84.90;;;;;;5014974;28;20515;-89
2021/01/09 08:18:13;;;;;;;29.33;14.55;;;1.80;84.70;;;;;;5012830;28;20026;-89
2021/01/09 08:20:39;;;;;;;30.33;14.45;;;1.70;84.70;;;;;;4995790;28;20053;-88
2021/01/09 08:23:06;;;;;;;29.98;15.02;;;1.70;84.80;;;;;;5005524;28;20362;-88
2021/01/09 08:25:42;;;;;;;31.45;15.10;;;1.80;84.90;;;;;;5012955;28;20191;-89
2021/01/09 08:28:08;;;;;;;30.30;14.38;;;1.80;84.90;;;;;;5013806;28;20097;-88
2021/01/09 08:30:39;;;;;;;29.73;15.52;;;1.80;84.90;;;;;;5014876;28;20041;-88
2021/01/09 08:33:10;;;;;;;28.98;14.52;;;1.90;84.90;;;;;;5017184;28;20021;-89
2021/01/09 08:35:54;;;;;;;33.28;16.95;;;1.90;85.10;;;;;;5013610;28;20080;-89
2021/01/09 08:38:27;;;;;;;30.98;15.48;;;2.00;84.60;;;;;;5017705;28;20037;-87
2021/01/09 08:40:57;;;;;;;28.13;13.88;;;2.00;84.40;;;;;;5017458;28;20100;-87
2021/01/09 08:43:24;;;;;;;25.65;13.57;;;1.90;84.40;;;;;;5011516;28;20029;-88
2021/01/09 08:45:55;;;;;;;24.02;13.00;;;2.00;84.50;;;;;;5011881;28;20125;-88
2021/01/09 08:48:29;;;;;;;21.60;11.68;;;2.00;84.40;;;;;;5012926;28;20049;-87
2021/01/09 08:51:11;;;;;;;21.40;11.98;;;2.00;84.30;;;;;;5012833;28;20076;-87
2021/01/09 08:53:55;;;;;;;22.20;12.55;;;2.10;84.30;;;;;;5012458;28;20504;-89
2021/01/09 08:56:22;;;;;;;27.60;12.82;;;2.10;84.10;;;;;;5035554;28;20030;-90
2021/01/09 08:58:49;;;;;;;24.77;12.55;;;2.10;84.20;;;;;;5025333;28;20061;-89
2021/01/09 09:01:18;;;;;;;29.60;13.48;;;2.10;84.10;;;;;;5013856;28;20448;-90
2021/01/09 09:03:48;;;;;;;26.38;13.65;;;2.10;84.00;;;;;;5013040;28;20032;-90
2021/01/09 09:06:16;;;;;;;22.02;11.63;;;2.20;83.90;;;;;;5015704;28;20463;-90
2021/01/09 09:08:43;;;;;;;24.02;11.50;;;2.10;83.90;;;;;;5012892;28;20048;-90
2021/01/09 09:11:09;;;;;;;20.70;10.80;;;2.10;83.90;;;;;;5014155;28;20056;-90
2021/01/09 09:13:36;;;;;;;19.90;11.10;;;2.10;83.90;;;;;;5010674;28;20500;-90
2021/01/09 09:16:21;;;;;;;22.83;11.43;;;2.20;84.00;;;;;;5009922;28;20025;-89
2021/01/09 09:18:48;;;;;;;19.70;11.60;;;2.20;83.90;;;;;;5004732;28;20037;-89
2021/01/09 09:21:17;;;;;;;20.67;11.95;;;2.20;83.80;;;;;;5011536;28;20034;-89
2021/01/09 09:23:51;;;;;;;21.23;11.25;;;2.30;84.00;;;;;;5011979;28;20030;-90
2021/01/09 09:26:17;;;;;;;23.52;11.80;;;2.30;83.70;;;;;;5007564;28;20023;-89
2021/01/09 09:28:51;;;;;;;18.08;10.02;;;2.40;83.90;;;;;;5005859;28;20025;-89
2021/01/09 09:31:22;;;;;;;17.25;9.77;;;2.40;83.80;;;;;;5009788;28;20102;-89
2021/01/09 09:34:17;;;;;;;19.63;10.15;;;2.50;83.50;;;;;;5012855;28;20129;-89
2021/01/09 09:36:52;;;;;;;20.33;9.75;;;2.50;83.30;;;;;;4995246;28;20038;-89
2021/01/09 09:39:22;;;;;;;16.20;9.45;;;2.40;83.30;;;;;;5030835;28;20057;-88
2021/01/09 09:41:51;;;;;;;18.40;10.43;;;2.40;83.20;;;;;;5017634;28;20030;-90
2021/01/09 09:44:17;;;;;;;19.17;10.27;;;2.40;83.20;;;;;;5029387;28;20104;-90
2021/01/09 09:46:43;;;;;;;18.73;10.32;;;2.40;83.30;;;;;;5011757;28;20025;-89
2021/01/09 09:49:09;;;;;;;16.73;9.43;;;2.40;83.20;;;;;;5011241;28;20018;-92
2021/01/09 09:51:35;;;;;;;16.63;9.55;;;2.40;83.20;;;;;;5013895;28;20480;-90
2021/01/09 09:54:02;;;;;;;20.38;10.15;;;2.30;83.10;;;;;;5015070;28;20038;-89
2021/01/09 09:56:35;;;;;;;19.63;10.27;;;2.30;82.90;;;;;;5012391;28;20062;-89
2021/01/09 09:59:02;;;;;;;18.85;10.88;;;2.20;82.90;;;;;;5013916;28;20492;-89
2021/01/09 10:01:29;;;;;;;18.85;10.75;;;2.10;83.00;;;;;;5029527;28;20022;-90
2021/01/09 10:04:00;;;;;;;19.83;10.93;;;1.90;83.10;;;;;;5012453;28;20117;-88
2021/01/09 10:06:37;;;;;;;15.23;8.43;;;1.90;83.50;;;;;;5013588;28;20068;-88
2021/01/09 10:09:14;;;;;;;18.92;10.65;;;1.90;83.80;;;;;;5013459;28;20108;-88
2021/01/09 10:11:41;;;;;;;20.75;10.95;;;2.00;83.70;;;;;;5012108;28;20026;-89
2021/01/09 10:14:07;;;;;;;19.17;11.20;;;2.00;83.40;;;;;;5008378;28;20069;-88
2021/01/09 10:16:36;;;;;;;18.92;10.63;;;2.00;83.40;;;;;;4992686;28;20038;-87
2021/01/09 10:19:03;;;;;;;18.95;10.77;;;2.10;83.30;;;;;;5011197;28;20030;-88
2021/01/09 10:21:31;;;;;;;19.08;11.07;;;2.10;83.40;;;;;;5011764;28;20030;-88
2021/01/09 10:23:57;;;;;;;18.55;10.75;;;2.10;83.40;;;;;;5011427;28;20111;-89
2021/01/09 10:26:27;;;;;;;19.35;11.00;;;2.20;83.30;;;;;;5015580;28;20472;-86
2021/01/09 10:28:53;;;;;;;16.77;10.07;;;2.20;83.60;;;;;;5002419;28;20213;-86
2021/01/09 10:31:26;;;;;;;21.67;10.50;;;2.20;83.00;;;;;;5016980;28;20040;-87
2021/01/09 10:33:52;;;;;;;16.95;10.07;;;2.30;83.10;;;;;;5015848;28;20030;-86
2021/01/09 10:36:23;;;;;;;18.67;10.48;;;2.20;82.70;;;;;;5017029;28;20069;-86
2021/01/09 10:38:48;;;;;;;20.80;11.32;;;2.20;82.90;;;;;;5017922;28;20120;-86
2021/01/09 10:41:14;;;;;;;20.92;10.80;;;2.10;83.00;;;;;;5017193;28;20115;-88
2021/01/09 10:43:40;;;;;;;18.17;9.82;;;2.10;82.80;;;;;;5016210;28;20041;-87
2021/01/09 10:46:06;;;;;;;17.73;9.38;;;2.00;82.90;;;;;;5015562;28;20034;-88
2021/01/09 10:48:34;;;;;;;21.00;10.05;;;1.90;82.80;;;;;;5017045;28;20089;-88
2021/01/09 10:50:59;;;;;;;17.10;10.25;;;1.80;82.80;;;;;;5016723;28;20087;-88
2021/01/09 10:53:25;;;;;;;22.33;10.02;;;1.80;82.90;;;;;;5015348;28;20061;-88
2021/01/09 10:55:54;;;;;;;18.75;10.63;;;1.80;83.20;;;;;;5006496;28;20022;-88
2021/01/09 10:58:20;;;;;;;19.48;10.05;;;1.70;83.10;;;;;;5009162;28;20022;-88
2021/01/09 11:00:45;;;;;;;19.17;10.02;;;1.80;83.30;;;;;;5013695;28;20026;-88
2021/01/09 11:03:11;;;;;;;19.00;10.50;;;1.70;83.20;;;;;;5014911;28;20014;-88
2021/01/09 11:05:40;;;;;;;20.45;10.75;;;1.80;83.30;;;;;;5015229;28;20069;-88
2021/01/09 11:08:05;;;;;;;22.00;11.18;;;1.80;83.10;;;;;;5018947;28;20112;-87
2021/01/09 11:10:31;;;;;;;19.17;10.18;;;1.90;83.40;;;;;;5018147;28;20056;-88
2021/01/09 11:12:57;;;;;;;20.05;11.20;;;2.00;83.30;;;;;;5033526;28;20025;-87
2021/01/09 11:15:23;;;;;;;17.67;9.98;;;2.10;83.70;;;;;;5032082;28;20068;-87
2021/01/09 11:17:48;;;;;;;17.08;10.00;;;2.20;83.10;;;;;;5016649;28;20030;-87
2021/01/09 11:20:15;;;;;;;16.85;9.70;;;2.20;82.70;;;;;;5014038;28;20503;-87
2021/01/09 11:22:40;;;;;;;16.23;9.55;;;2.20;82.70;;;;;;5013913;28;20036;-88
2021/01/09 11:25:06;;;;;;;18.23;10.15;;;2.30;82.80;;;;;;5028159;28;20030;-88
2021/01/09 11:27:32;;;;;;;18.00;9.82;;;2.30;82.70;;;;;;5005362;28;20096;-88
2021/01/09 11:29:57;;;;;;;39.10;20.35;;;2.30;82.60;;;;;;5013012;28;20450;-88
2021/01/09 11:32:23;;;;;;;19.52;9.93;;;2.40;82.90;;;;;;5012111;28;20018;-88
2021/01/09 11:34:49;;;;;;;20.55;9.85;;;2.50;82.70;;;;;;5013218;28;20392;-88
2021/01/09 11:37:15;;;;;;;18.67;9.30;;;2.60;82.40;;;;;;5013641;28;20056;-87
2021/01/09 11:39:40;;;;;;;15.90;9.75;;;2.60;82.20;;;;;;5014258;28;20030;-88
2021/01/09 11:42:07;;;;;;;17.15;10.18;;;2.70;82.20;;;;;;5012840;28;20061;-88
2021/01/09 11:44:33;;;;;;;15.52;9.07;;;2.70;82.00;;;;;;5012781;28;20034;-88
2021/01/09 11:47:02;;;;;;;16.95;9.25;;;2.70;81.70;;;;;;5013183;28;20029;-87
2021/01/09 11:49:28;;;;;;;14.63;8.60;;;2.80;81.70;;;;;;5012856;28;20022;-88
2021/01/09 11:56:47;;;;;;;13.48;8.50;;;2.70;81.70;;;;;;5036243;28;20044;-67
2021/01/09 11:59:12;;;;;;;17.00;9.23;;;2.70;81.70;;;;;;5033583;28;20021;-67
2021/01/09 12:01:38;;;;;;;14.32;9.05;;;2.70;81.70;;;;;;5033524;28;20032;-67
2021/01/09 12:04:05;;;;;;;15.63;9.27;;;2.70;81.60;;;;;;5031850;28;20033;-67
2021/01/09 12:06:30;;;;;;;15.60;8.93;;;2.80;81.60;;;;;;5050970;28;20480;-67
2021/01/09 12:08:56;;;;;;;15.07;9.23;;;2.90;81.40;;;;;;5051103;28;20040;-67
2021/01/09 12:11:22;;;;;;;15.02;8.80;;;2.90;80.80;;;;;;5033305;28;20025;-67
2021/01/09 12:13:48;;;;;;;15.85;9.55;;;2.80;80.60;;;;;;5051280;28;20071;-67
2021/01/09 12:16:14;;;;;;;14.80;9.13;;;2.80;80.90;;;;;;5051071;28;20029;-67
2021/01/09 12:18:40;;;;;;;15.32;8.88;;;2.80;81.10;;;;;;5051316;28;20035;-67
2021/01/09 12:21:05;;;;;;;15.23;9.13;;;2.90;81.20;;;;;;5051125;28;20041;-67
2021/01/09 12:23:31;;;;;;;14.10;8.80;;;2.80;80.90;;;;;;5026116;28;20068;-67
2021/01/09 12:25:57;;;;;;;14.35;8.63;;;2.80;80.90;;;;;;5032462;28;20460;-67
2021/01/09 12:28:22;;;;;;;15.50;9.50;;;2.80;80.90;;;;;;5050883;28;20033;-67
2021/01/09 12:30:49;;;;;;;16.88;9.75;;;2.80;81.30;;;;;;5051167;28;20108;-67
2021/01/09 12:33:15;;;;;;;15.98;9.18;;;2.90;81.50;;;;;;5051045;28;20025;-67
2021/01/09 12:35:41;;;;;;;14.65;8.50;;;2.90;81.30;;;;;;5050030;28;20040;-67
2021/01/09 12:38:06;;;;;;;15.38;8.90;;;2.90;81.00;;;;;;5050857;28;20477;-66
2021/01/09 12:40:32;;;;;;;17.13;9.60;;;2.90;80.90;;;;;;5032105;28;20054;-67
2021/01/09 12:42:57;;;;;;;15.57;8.52;;;2.90;80.90;;;;;;5049997;28;20118;-67
2021/01/09 12:45:23;;;;;;;16.70;9.50;;;2.80;80.90;;;;;;5049728;28;20147;-67
2021/01/09 12:47:48;;;;;;;18.55;9.45;;;2.70;80.80;;;;;;5050762;28;20493;-67